sensor_id;sensor_type;location;lat;lon;timestamp;P1;durP1;ratioP1;P2;durP2;ratioP2
45354;SDS011;31091;48.758;9.150;2022-11-20T00:01:34;9.68;;;3.10;;
45354;SDS011;31091;48.758;9.150;2022-11-20T00:04:20;8.75;;;3.40;;
45354;SDS011;31091;48.758;9.150;2022-11-20T00:07:05;4.97;;;3.38;;
45354;SDS011;31091;48.758;9.150;2022-11-20T00:09:50;7.13;;;3.30;;
45354;SDS011;31091;48.758;9.150;2022-11-20T00:12:36;6.82;;;3.15;;
45354;SDS011;31091;48.758;9.150;2022-11-20T00:15:21;8.90;;;4.15;;
45354;SDS011;31091;48.758;9.150;2022-11-20T00:18:27;5.55;;;3.20;;
45354;SDS011;31091;48.758;9.150;2022-11-20T00:21:16;6.45;;;3.35;;
45354;SDS011;31091;48.758;9.150;2022-11-20T00:24:01;5.05;;;3.42;;
45354;SDS011;31091;48.758;9.150;2022-11-20T00:26:47;7.97;;;3.58;;
45354;SDS011;31091;48.758;9.150;2022-11-20T00:29:32;6.90;;;3.40;;
45354;SDS011;31091;48.758;9.150;2022-11-20T00:32:17;9.18;;;3.35;;
45354;SDS011;31091;48.758;9.150;2022-11-20T00:35:02;8.43;;;3.53;;
45354;SDS011;31091;48.758;9.150;2022-11-20T00:37:48;8.00;;;3.50;;
45354;SDS011;31091;48.758;9.150;2022-11-20T00:40:33;9.50;;;4.53;;
45354;SDS011;31091;48.758;9.150;2022-11-20T00:43:18;6.30;;;3.40;;
45354;SDS011;31091;48.758;9.150;2022-11-20T00:46:05;6.68;;;3.55;;
45354;SDS011;31091;48.758;9.150;2022-11-20T00:48:51;6.18;;;3.00;;
45354;SDS011;31091;48.758;9.150;2022-11-20T00:51:36;7.70;;;3.42;;
45354;SDS011;31091;48.758;9.150;2022-11-20T00:54:21;8.30;;;3.40;;
45354;SDS011;31091;48.758;9.150;2022-11-20T00:57:06;9.80;;;3.72;;
45354;SDS011;31091;48.758;9.150;2022-11-20T00:59:52;6.07;;;3.10;;
45354;SDS011;31091;48.758;9.150;2022-11-20T01:02:37;7.63;;;3.70;;
45354;SDS011;31091;48.758;9.150;2022-11-20T01:05:22;5.80;;;3.10;;
45354;SDS011;31091;48.758;9.150;2022-11-20T01:08:08;6.20;;;2.80;;
45354;SDS011;31091;48.758;9.150;2022-11-20T01:10:53;6.95;;;3.40;;
45354;SDS011;31091;48.758;9.150;2022-11-20T01:16:30;4.20;;;3.33;;
45354;SDS011;31091;48.758;9.150;2022-11-20T01:19:20;4.47;;;2.70;;
45354;SDS011;31091;48.758;9.150;2022-11-20T01:22:05;5.38;;;2.67;;
45354;SDS011;31091;48.758;9.150;2022-11-20T01:24:50;4.63;;;2.13;;
45354;SDS011;31091;48.758;9.150;2022-11-20T01:27:36;5.15;;;2.83;;
45354;SDS011;31091;48.758;9.150;2022-11-20T01:30:21;5.00;;;2.35;;
45354;SDS011;31091;48.758;9.150;2022-11-20T01:33:06;2.60;;;1.83;;
45354;SDS011;31091;48.758;9.150;2022-11-20T01:35:52;3.15;;;2.33;;
45354;SDS011;31091;48.758;9.150;2022-11-20T01:38:38;5.20;;;2.88;;
45354;SDS011;31091;48.758;9.150;2022-11-20T01:41:23;4.97;;;2.45;;
45354;SDS011;31091;48.758;9.150;2022-11-20T01:44:45;3.45;;;2.30;;
45354;SDS011;31091;48.758;9.150;2022-11-20T01:47:43;4.15;;;2.55;;
45354;SDS011;31091;48.758;9.150;2022-11-20T01:50:29;3.47;;;2.22;;
45354;SDS011;31091;48.758;9.150;2022-11-20T01:53:15;3.58;;;2.60;;
45354;SDS011;31091;48.758;9.150;2022-11-20T01:56:01;6.75;;;2.33;;
45354;SDS011;31091;48.758;9.150;2022-11-20T01:58:50;4.28;;;2.40;;
45354;SDS011;31091;48.758;9.150;2022-11-20T02:01:36;4.57;;;1.88;;
45354;SDS011;31091;48.758;9.150;2022-11-20T02:04:21;3.05;;;1.95;;
45354;SDS011;31091;48.758;9.150;2022-11-20T02:07:07;3.33;;;2.03;;
45354;SDS011;31091;48.758;9.150;2022-11-20T02:09:53;9.15;;;3.17;;
45354;SDS011;31091;48.758;9.150;2022-11-20T02:12:38;4.60;;;2.92;;
45354;SDS011;31091;48.758;9.150;2022-11-20T02:15:42;4.53;;;2.30;;
45354;SDS011;31091;48.758;9.150;2022-11-20T02:18:27;3.60;;;2.15;;
45354;SDS011;31091;48.758;9.150;2022-11-20T02:21:19;4.82;;;2.33;;
45354;SDS011;31091;48.758;9.150;2022-11-20T02:24:10;4.40;;;2.80;;
45354;SDS011;31091;48.758;9.150;2022-11-20T02:26:58;3.38;;;2.17;;
45354;SDS011;31091;48.758;9.150;2022-11-20T02:29:46;3.97;;;2.70;;
45354;SDS011;31091;48.758;9.150;2022-11-20T02:32:36;4.80;;;2.00;;
45354;SDS011;31091;48.758;9.150;2022-11-20T02:38:06;3.78;;;2.55;;
45354;SDS011;31091;48.758;9.150;2022-11-20T02:40:52;3.58;;;2.10;;
45354;SDS011;31091;48.758;9.150;2022-11-20T02:43:37;3.53;;;2.22;;
45354;SDS011;31091;48.758;9.150;2022-11-20T02:46:22;4.57;;;2.55;;
45354;SDS011;31091;48.758;9.150;2022-11-20T02:49:07;4.43;;;3.50;;
45354;SDS011;31091;48.758;9.150;2022-11-20T02:51:53;6.13;;;2.40;;
45354;SDS011;31091;48.758;9.150;2022-11-20T02:54:38;3.50;;;2.40;;
45354;SDS011;31091;48.758;9.150;2022-11-20T02:57:23;5.75;;;2.22;;
45354;SDS011;31091;48.758;9.150;2022-11-20T03:00:09;5.32;;;2.25;;
45354;SDS011;31091;48.758;9.150;2022-11-20T03:02:54;3.22;;;2.33;;
45354;SDS011;31091;48.758;9.150;2022-11-20T03:05:39;4.65;;;2.03;;
45354;SDS011;31091;48.758;9.150;2022-11-20T03:08:25;5.47;;;2.45;;
45354;SDS011;31091;48.758;9.150;2022-11-20T03:11:10;7.25;;;2.22;;
45354;SDS011;31091;48.758;9.150;2022-11-20T03:13:55;6.40;;;2.60;;
45354;SDS011;31091;48.758;9.150;2022-11-20T03:16:41;4.25;;;1.90;;
45354;SDS011;31091;48.758;9.150;2022-11-20T03:19:26;4.75;;;2.50;;
45354;SDS011;31091;48.758;9.150;2022-11-20T03:22:11;4.90;;;2.13;;
45354;SDS011;31091;48.758;9.150;2022-11-20T03:24:57;4.05;;;1.90;;
45354;SDS011;31091;48.758;9.150;2022-11-20T03:27:42;4.20;;;1.75;;
45354;SDS011;31091;48.758;9.150;2022-11-20T03:30:27;5.07;;;2.00;;
45354;SDS011;31091;48.758;9.150;2022-11-20T03:33:12;4.90;;;2.13;;
45354;SDS011;31091;48.758;9.150;2022-11-20T03:36:02;5.65;;;2.67;;
45354;SDS011;31091;48.758;9.150;2022-11-20T03:41:36;3.78;;;2.20;;
45354;SDS011;31091;48.758;9.150;2022-11-20T03:44:21;5.78;;;2.72;;
45354;SDS011;31091;48.758;9.150;2022-11-20T03:47:07;7.30;;;2.67;;
45354;SDS011;31091;48.758;9.150;2022-11-20T03:49:52;3.85;;;2.10;;
45354;SDS011;31091;48.758;9.150;2022-11-20T03:52:37;4.75;;;2.10;;
45354;SDS011;31091;48.758;9.150;2022-11-20T03:55:23;10.75;;;3.53;;
45354;SDS011;31091;48.758;9.150;2022-11-20T03:58:09;4.90;;;2.38;;
45354;SDS011;31091;48.758;9.150;2022-11-20T04:00:54;3.55;;;2.75;;
45354;SDS011;31091;48.758;9.150;2022-11-20T04:03:40;4.00;;;2.28;;
45354;SDS011;31091;48.758;9.150;2022-11-20T04:06:26;4.75;;;2.28;;
45354;SDS011;31091;48.758;9.150;2022-11-20T04:09:12;5.07;;;2.20;;
45354;SDS011;31091;48.758;9.150;2022-11-20T04:11:57;5.13;;;2.67;;
45354;SDS011;31091;48.758;9.150;2022-11-20T04:14:43;7.82;;;3.15;;
45354;SDS011;31091;48.758;9.150;2022-11-20T04:17:28;6.43;;;2.30;;
45354;SDS011;31091;48.758;9.150;2022-11-20T04:20:13;4.57;;;2.85;;
45354;SDS011;31091;48.758;9.150;2022-11-20T04:22:59;5.53;;;3.53;;
45354;SDS011;31091;48.758;9.150;2022-11-20T04:25:44;5.63;;;3.22;;
45354;SDS011;31091;48.758;9.150;2022-11-20T04:28:30;4.30;;;2.78;;
45354;SDS011;31091;48.758;9.150;2022-11-20T04:31:16;6.05;;;2.83;;
45354;SDS011;31091;48.758;9.150;2022-11-20T04:34:03;6.60;;;2.75;;
45354;SDS011;31091;48.758;9.150;2022-11-20T04:36:48;4.80;;;2.40;;
45354;SDS011;31091;48.758;9.150;2022-11-20T04:39:34;4.70;;;2.55;;
45354;SDS011;31091;48.758;9.150;2022-11-20T04:42:19;5.40;;;2.58;;
45354;SDS011;31091;48.758;9.150;2022-11-20T04:45:13;6.97;;;3.25;;
45354;SDS011;31091;48.758;9.150;2022-11-20T04:47:58;3.00;;;2.28;;
45354;SDS011;31091;48.758;9.150;2022-11-20T04:50:44;7.55;;;2.58;;
45354;SDS011;31091;48.758;9.150;2022-11-20T04:53:29;5.53;;;2.42;;
45354;SDS011;31091;48.758;9.150;2022-11-20T04:56:14;4.95;;;2.72;;
45354;SDS011;31091;48.758;9.150;2022-11-20T04:59:01;4.90;;;2.53;;
45354;SDS011;31091;48.758;9.150;2022-11-20T05:01:46;6.75;;;3.00;;
45354;SDS011;31091;48.758;9.150;2022-11-20T05:04:31;4.38;;;2.67;;
45354;SDS011;31091;48.758;9.150;2022-11-20T05:07:17;4.40;;;2.72;;
45354;SDS011;31091;48.758;9.150;2022-11-20T05:10:02;5.25;;;2.83;;
45354;SDS011;31091;48.758;9.150;2022-11-20T05:12:47;4.13;;;2.50;;
45354;SDS011;31091;48.758;9.150;2022-11-20T05:15:32;3.72;;;2.30;;
45354;SDS011;31091;48.758;9.150;2022-11-20T05:18:18;5.18;;;2.70;;
45354;SDS011;31091;48.758;9.150;2022-11-20T05:21:03;6.30;;;2.88;;
45354;SDS011;31091;48.758;9.150;2022-11-20T05:23:49;4.00;;;2.67;;
45354;SDS011;31091;48.758;9.150;2022-11-20T05:26:34;4.40;;;2.42;;
45354;SDS011;31091;48.758;9.150;2022-11-20T05:29:19;4.80;;;2.58;;
45354;SDS011;31091;48.758;9.150;2022-11-20T05:32:04;6.72;;;2.60;;
45354;SDS011;31091;48.758;9.150;2022-11-20T05:34:52;3.80;;;2.80;;
45354;SDS011;31091;48.758;9.150;2022-11-20T05:37:37;3.67;;;2.70;;
45354;SDS011;31091;48.758;9.150;2022-11-20T05:40:23;3.92;;;2.60;;
45354;SDS011;31091;48.758;9.150;2022-11-20T05:43:08;4.18;;;2.40;;
45354;SDS011;31091;48.758;9.150;2022-11-20T05:45:53;3.67;;;2.70;;
45354;SDS011;31091;48.758;9.150;2022-11-20T05:48:39;10.38;;;2.90;;
45354;SDS011;31091;48.758;9.150;2022-11-20T05:51:25;4.57;;;2.50;;
45354;SDS011;31091;48.758;9.150;2022-11-20T05:54:10;5.60;;;2.83;;
45354;SDS011;31091;48.758;9.150;2022-11-20T05:56:55;4.22;;;2.20;;
45354;SDS011;31091;48.758;9.150;2022-11-20T05:59:40;2.85;;;2.22;;
45354;SDS011;31091;48.758;9.150;2022-11-20T06:02:26;4.22;;;2.45;;
45354;SDS011;31091;48.758;9.150;2022-11-20T06:05:11;3.33;;;2.30;;
45354;SDS011;31091;48.758;9.150;2022-11-20T06:07:56;2.38;;;2.05;;
45354;SDS011;31091;48.758;9.150;2022-11-20T06:10:41;5.22;;;2.35;;
45354;SDS011;31091;48.758;9.150;2022-11-20T06:13:27;4.60;;;2.78;;
45354;SDS011;31091;48.758;9.150;2022-11-20T06:16:13;3.80;;;2.60;;
45354;SDS011;31091;48.758;9.150;2022-11-20T06:18:59;3.97;;;2.35;;
45354;SDS011;31091;48.758;9.150;2022-11-20T06:21:44;3.72;;;2.20;;
45354;SDS011;31091;48.758;9.150;2022-11-20T06:24:29;3.17;;;2.15;;
45354;SDS011;31091;48.758;9.150;2022-11-20T06:27:15;4.03;;;2.47;;
45354;SDS011;31091;48.758;9.150;2022-11-20T06:30:00;4.20;;;1.95;;
45354;SDS011;31091;48.758;9.150;2022-11-20T06:32:45;3.72;;;1.77;;
45354;SDS011;31091;48.758;9.150;2022-11-20T06:35:31;3.15;;;2.20;;
45354;SDS011;31091;48.758;9.150;2022-11-20T06:38:16;3.20;;;2.13;;
45354;SDS011;31091;48.758;9.150;2022-11-20T06:41:02;3.92;;;2.13;;
45354;SDS011;31091;48.758;9.150;2022-11-20T06:43:48;4.00;;;2.33;;
45354;SDS011;31091;48.758;9.150;2022-11-20T06:46:33;3.58;;;1.65;;
45354;SDS011;31091;48.758;9.150;2022-11-20T06:49:18;4.65;;;2.55;;
45354;SDS011;31091;48.758;9.150;2022-11-20T06:52:04;3.45;;;2.35;;
45354;SDS011;31091;48.758;9.150;2022-11-20T06:54:49;2.28;;;1.80;;
45354;SDS011;31091;48.758;9.150;2022-11-20T06:57:34;6.43;;;2.00;;
45354;SDS011;31091;48.758;9.150;2022-11-20T07:00:20;4.65;;;2.35;;
45354;SDS011;31091;48.758;9.150;2022-11-20T07:03:09;2.85;;;1.88;;
45354;SDS011;31091;48.758;9.150;2022-11-20T07:05:58;3.00;;;1.85;;
45354;SDS011;31091;48.758;9.150;2022-11-20T07:08:43;5.15;;;2.78;;
45354;SDS011;31091;48.758;9.150;2022-11-20T07:11:28;4.18;;;1.98;;
45354;SDS011;31091;48.758;9.150;2022-11-20T07:14:14;3.28;;;2.30;;
45354;SDS011;31091;48.758;9.150;2022-11-20T07:16:59;4.90;;;1.80;;
45354;SDS011;31091;48.758;9.150;2022-11-20T07:19:44;4.78;;;2.13;;
45354;SDS011;31091;48.758;9.150;2022-11-20T07:22:29;3.08;;;1.98;;
45354;SDS011;31091;48.758;9.150;2022-11-20T07:25:14;6.57;;;2.25;;
45354;SDS011;31091;48.758;9.150;2022-11-20T07:28:00;2.60;;;2.10;;
45354;SDS011;31091;48.758;9.150;2022-11-20T07:30:52;3.88;;;2.42;;
45354;SDS011;31091;48.758;9.150;2022-11-20T07:33:37;2.35;;;1.80;;
45354;SDS011;31091;48.758;9.150;2022-11-20T07:36:23;4.70;;;2.53;;
45354;SDS011;31091;48.758;9.150;2022-11-20T07:39:08;6.13;;;2.22;;
45354;SDS011;31091;48.758;9.150;2022-11-20T07:41:53;7.20;;;2.53;;
45354;SDS011;31091;48.758;9.150;2022-11-20T07:44:40;4.43;;;2.20;;
45354;SDS011;31091;48.758;9.150;2022-11-20T07:47:25;3.60;;;2.15;;
45354;SDS011;31091;48.758;9.150;2022-11-20T07:50:10;1.83;;;1.30;;
45354;SDS011;31091;48.758;9.150;2022-11-20T07:53:02;1.83;;;1.45;;
45354;SDS011;31091;48.758;9.150;2022-11-20T07:55:48;3.75;;;1.98;;
45354;SDS011;31091;48.758;9.150;2022-11-20T07:58:34;3.20;;;1.60;;
45354;SDS011;31091;48.758;9.150;2022-11-20T08:01:19;3.95;;;2.10;;
45354;SDS011;31091;48.758;9.150;2022-11-20T08:04:04;3.85;;;2.08;;
45354;SDS011;31091;48.758;9.150;2022-11-20T08:06:51;2.97;;;1.90;;
45354;SDS011;31091;48.758;9.150;2022-11-20T08:09:36;4.70;;;1.77;;
45354;SDS011;31091;48.758;9.150;2022-11-20T08:12:21;2.28;;;1.60;;
45354;SDS011;31091;48.758;9.150;2022-11-20T08:15:37;5.03;;;1.60;;
45354;SDS011;31091;48.758;9.150;2022-11-20T08:18:23;4.18;;;2.03;;
45354;SDS011;31091;48.758;9.150;2022-11-20T08:21:08;5.20;;;2.13;;
45354;SDS011;31091;48.758;9.150;2022-11-20T08:23:53;2.63;;;1.60;;
45354;SDS011;31091;48.758;9.150;2022-11-20T08:26:39;2.13;;;1.30;;
45354;SDS011;31091;48.758;9.150;2022-11-20T08:29:28;3.38;;;1.65;;
45354;SDS011;31091;48.758;9.150;2022-11-20T08:32:13;2.03;;;1.40;;
45354;SDS011;31091;48.758;9.150;2022-11-20T08:34:58;3.17;;;1.90;;
45354;SDS011;31091;48.758;9.150;2022-11-20T08:37:47;2.65;;;1.52;;
45354;SDS011;31091;48.758;9.150;2022-11-20T08:40:32;2.83;;;1.45;;
45354;SDS011;31091;48.758;9.150;2022-11-20T08:43:18;2.88;;;1.65;;
45354;SDS011;31091;48.758;9.150;2022-11-20T08:46:03;1.63;;;1.52;;
45354;SDS011;31091;48.758;9.150;2022-11-20T08:48:48;3.15;;;1.38;;
45354;SDS011;31091;48.758;9.150;2022-11-20T08:51:34;1.55;;;1.30;;
45354;SDS011;31091;48.758;9.150;2022-11-20T08:54:19;1.58;;;1.38;;
45354;SDS011;31091;48.758;9.150;2022-11-20T08:57:06;2.35;;;1.33;;
45354;SDS011;31091;48.758;9.150;2022-11-20T08:59:52;1.40;;;1.10;;
45354;SDS011;31091;48.758;9.150;2022-11-20T09:02:37;2.65;;;1.30;;
45354;SDS011;31091;48.758;9.150;2022-11-20T09:05:22;1.98;;;1.23;;
45354;SDS011;31091;48.758;9.150;2022-11-20T09:08:07;2.35;;;1.40;;
45354;SDS011;31091;48.758;9.150;2022-11-20T09:10:53;4.03;;;1.92;;
45354;SDS011;31091;48.758;9.150;2022-11-20T09:13:38;2.05;;;1.10;;
45354;SDS011;31091;48.758;9.150;2022-11-20T09:16:23;2.35;;;1.40;;
45354;SDS011;31091;48.758;9.150;2022-11-20T09:19:09;2.55;;;1.50;;
45354;SDS011;31091;48.758;9.150;2022-11-20T09:21:54;1.95;;;1.13;;
45354;SDS011;31091;48.758;9.150;2022-11-20T09:24:39;1.48;;;1.10;;
45354;SDS011;31091;48.758;9.150;2022-11-20T09:27:25;1.23;;;1.13;;
45354;SDS011;31091;48.758;9.150;2022-11-20T09:30:10;2.05;;;1.30;;
45354;SDS011;31091;48.758;9.150;2022-11-20T09:32:56;2.20;;;1.45;;
45354;SDS011;31091;48.758;9.150;2022-11-20T09:35:41;1.27;;;1.15;;
45354;SDS011;31091;48.758;9.150;2022-11-20T09:38:28;2.20;;;1.23;;
45354;SDS011;31091;48.758;9.150;2022-11-20T09:47:16;2.00;;;1.27;;
45354;SDS011;31091;48.758;9.150;2022-11-20T09:55:40;1.50;;;1.02;;
45354;SDS011;31091;48.758;9.150;2022-11-20T09:58:31;2.38;;;0.90;;
45354;SDS011;31091;48.758;9.150;2022-11-20T10:06:58;1.83;;;0.95;;
45354;SDS011;31091;48.758;9.150;2022-11-20T10:09:55;1.20;;;0.90;;
45354;SDS011;31091;48.758;9.150;2022-11-20T10:12:52;1.23;;;1.05;;
45354;SDS011;31091;48.758;9.150;2022-11-20T10:26:56;1.33;;;0.83;;
45354;SDS011;31091;48.758;9.150;2022-11-20T10:29:26;1.27;;;1.08;;
45354;SDS011;31091;48.758;9.150;2022-11-20T10:32:00;2.10;;;0.82;;
45354;SDS011;31091;48.758;9.150;2022-11-20T10:34:31;1.38;;;0.95;;
45354;SDS011;31091;48.758;9.150;2022-11-20T10:37:00;1.77;;;1.00;;
45354;SDS011;31091;48.758;9.150;2022-11-20T10:41:53;1.80;;;1.30;;
45354;SDS011;31091;48.758;9.150;2022-11-20T10:44:20;1.73;;;0.90;;
45354;SDS011;31091;48.758;9.150;2022-11-20T10:47:04;2.00;;;1.02;;
45354;SDS011;31091;48.758;9.150;2022-11-20T10:49:30;1.98;;;0.93;;
45354;SDS011;31091;48.758;9.150;2022-11-20T10:52:04;1.50;;;0.93;;
45354;SDS011;31091;48.758;9.150;2022-11-20T10:57:51;1.15;;;0.88;;
45354;SDS011;31091;48.758;9.150;2022-11-20T10:59:50;2.65;;;1.20;;
45354;SDS011;31091;48.758;9.150;2022-11-20T11:02:22;1.08;;;1.00;;
45354;SDS011;31091;48.758;9.150;2022-11-20T11:05:14;1.50;;;1.00;;
45354;SDS011;31091;48.758;9.150;2022-11-20T11:07:59;1.52;;;0.90;;
45354;SDS011;31091;48.758;9.150;2022-11-20T11:10:51;3.20;;;1.00;;
45354;SDS011;31091;48.758;9.150;2022-11-20T11:13:37;1.58;;;0.93;;
45354;SDS011;31091;48.758;9.150;2022-11-20T11:16:24;2.38;;;1.13;;
45354;SDS011;31091;48.758;9.150;2022-11-20T11:19:13;2.40;;;1.38;;
45354;SDS011;31091;48.758;9.150;2022-11-20T11:21:58;1.80;;;1.02;;
45354;SDS011;31091;48.758;9.150;2022-11-20T11:24:51;2.85;;;1.60;;
45354;SDS011;31091;48.758;9.150;2022-11-20T11:27:45;1.65;;;1.08;;
45354;SDS011;31091;48.758;9.150;2022-11-20T11:30:40;1.92;;;1.27;;
45354;SDS011;31091;48.758;9.150;2022-11-20T11:33:27;4.88;;;1.55;;
45354;SDS011;31091;48.758;9.150;2022-11-20T11:36:22;2.10;;;1.35;;
45354;SDS011;31091;48.758;9.150;2022-11-20T11:39:16;2.75;;;1.52;;
45354;SDS011;31091;48.758;9.150;2022-11-20T11:42:02;1.58;;;1.17;;
45354;SDS011;31091;48.758;9.150;2022-11-20T11:44:48;3.38;;;1.48;;
45354;SDS011;31091;48.758;9.150;2022-11-20T11:47:52;3.42;;;1.20;;
45354;SDS011;31091;48.758;9.150;2022-11-20T11:50:37;2.83;;;1.23;;
45354;SDS011;31091;48.758;9.150;2022-11-20T11:53:32;3.30;;;1.90;;
45354;SDS011;31091;48.758;9.150;2022-11-20T11:56:19;1.55;;;1.20;;
45354;SDS011;31091;48.758;9.150;2022-11-20T11:59:05;3.90;;;1.77;;
45354;SDS011;31091;48.758;9.150;2022-11-20T12:01:53;2.83;;;1.48;;
45354;SDS011;31091;48.758;9.150;2022-11-20T12:04:42;5.03;;;1.67;;
45354;SDS011;31091;48.758;9.150;2022-11-20T12:07:41;2.00;;;1.10;;
45354;SDS011;31091;48.758;9.150;2022-11-20T12:10:36;2.57;;;1.20;;
45354;SDS011;31091;48.758;9.150;2022-11-20T12:13:31;3.42;;;1.40;;
45354;SDS011;31091;48.758;9.150;2022-11-20T12:16:19;1.65;;;1.10;;
45354;SDS011;31091;48.758;9.150;2022-11-20T12:19:12;2.90;;;1.17;;
45354;SDS011;31091;48.758;9.150;2022-11-20T12:24:59;5.00;;;1.67;;
45354;SDS011;31091;48.758;9.150;2022-11-20T12:28:09;3.65;;;1.70;;
45354;SDS011;31091;48.758;9.150;2022-11-20T12:39:30;4.85;;;1.20;;
45354;SDS011;31091;48.758;9.150;2022-11-20T12:57:24;2.58;;;1.50;;
45354;SDS011;31091;48.758;9.150;2022-11-20T13:00:22;6.45;;;1.10;;
45354;SDS011;31091;48.758;9.150;2022-11-20T13:03:23;1.10;;;1.00;;
45354;SDS011;31091;48.758;9.150;2022-11-20T13:06:15;5.35;;;0.95;;
45354;SDS011;31091;48.758;9.150;2022-11-20T13:09:01;1.83;;;1.20;;
45354;SDS011;31091;48.758;9.150;2022-11-20T13:11:57;3.92;;;0.90;;
45354;SDS011;31091;48.758;9.150;2022-11-20T13:20:23;1.50;;;0.90;;
45354;SDS011;31091;48.758;9.150;2022-11-20T13:23:09;2.45;;;0.95;;
45354;SDS011;31091;48.758;9.150;2022-11-20T13:26:14;2.00;;;0.93;;
45354;SDS011;31091;48.758;9.150;2022-11-20T13:29:19;2.17;;;0.90;;
45354;SDS011;31091;48.758;9.150;2022-11-20T13:32:14;2.50;;;1.02;;
45354;SDS011;31091;48.758;9.150;2022-11-20T13:35:03;1.83;;;0.88;;
45354;SDS011;31091;48.758;9.150;2022-11-20T13:37:49;2.13;;;1.20;;
45354;SDS011;31091;48.758;9.150;2022-11-20T13:43:39;1.33;;;0.98;;
45354;SDS011;31091;48.758;9.150;2022-11-20T13:46:34;3.97;;;1.95;;
45354;SDS011;31091;48.758;9.150;2022-11-20T13:49:30;1.45;;;1.10;;
45354;SDS011;31091;48.758;9.150;2022-11-20T14:01:17;2.97;;;0.98;;
45354;SDS011;31091;48.758;9.150;2022-11-20T14:04:07;2.00;;;1.20;;
45354;SDS011;31091;48.758;9.150;2022-11-20T14:06:55;3.13;;;1.05;;
45354;SDS011;31091;48.758;9.150;2022-11-20T14:09:49;5.13;;;1.55;;
45354;SDS011;31091;48.758;9.150;2022-11-20T14:12:34;4.07;;;1.33;;
45354;SDS011;31091;48.758;9.150;2022-11-20T14:15:37;3.88;;;1.15;;
45354;SDS011;31091;48.758;9.150;2022-11-20T14:18:25;3.00;;;1.52;;
45354;SDS011;31091;48.758;9.150;2022-11-20T14:21:11;3.45;;;1.38;;
45354;SDS011;31091;48.758;9.150;2022-11-20T14:24:06;1.50;;;1.02;;
45354;SDS011;31091;48.758;9.150;2022-11-20T14:26:51;2.75;;;1.23;;
45354;SDS011;31091;48.758;9.150;2022-11-20T14:29:37;2.70;;;1.40;;
45354;SDS011;31091;48.758;9.150;2022-11-20T14:32:24;2.78;;;1.42;;
45354;SDS011;31091;48.758;9.150;2022-11-20T14:35:26;2.95;;;1.33;;
45354;SDS011;31091;48.758;9.150;2022-11-20T14:38:12;2.53;;;1.08;;
45354;SDS011;31091;48.758;9.150;2022-11-20T14:41:08;4.10;;;1.10;;
45354;SDS011;31091;48.758;9.150;2022-11-20T14:43:57;2.15;;;1.20;;
45354;SDS011;31091;48.758;9.150;2022-11-20T14:46:42;4.18;;;1.20;;
45354;SDS011;31091;48.758;9.150;2022-11-20T14:49:29;3.63;;;1.13;;
45354;SDS011;31091;48.758;9.150;2022-11-20T14:55:00;1.83;;;1.20;;
45354;SDS011;31091;48.758;9.150;2022-11-20T14:57:45;3.08;;;1.73;;
45354;SDS011;31091;48.758;9.150;2022-11-20T15:00:38;3.10;;;1.38;;
45354;SDS011;31091;48.758;9.150;2022-11-20T15:03:30;3.90;;;1.77;;
45354;SDS011;31091;48.758;9.150;2022-11-20T15:06:15;4.53;;;1.60;;
45354;SDS011;31091;48.758;9.150;2022-11-20T15:09:14;5.88;;;1.83;;
45354;SDS011;31091;48.758;9.150;2022-11-20T15:12:02;5.18;;;1.25;;
45354;SDS011;31091;48.758;9.150;2022-11-20T15:14:48;4.03;;;1.90;;
45354;SDS011;31091;48.758;9.150;2022-11-20T15:17:33;2.63;;;1.23;;
45354;SDS011;31091;48.758;9.150;2022-11-20T15:20:21;6.00;;;1.60;;
45354;SDS011;31091;48.758;9.150;2022-11-20T15:23:12;4.00;;;1.70;;
45354;SDS011;31091;48.758;9.150;2022-11-20T15:25:58;4.60;;;1.40;;
45354;SDS011;31091;48.758;9.150;2022-11-20T15:28:43;2.15;;;1.33;;
45354;SDS011;31091;48.758;9.150;2022-11-20T15:31:29;5.93;;;1.83;;
45354;SDS011;31091;48.758;9.150;2022-11-20T15:34:15;5.30;;;1.65;;
45354;SDS011;31091;48.758;9.150;2022-11-20T15:37:00;2.17;;;1.20;;
45354;SDS011;31091;48.758;9.150;2022-11-20T15:39:44;2.13;;;1.27;;
45354;SDS011;31091;48.758;9.150;2022-11-20T15:42:09;5.47;;;2.28;;
45354;SDS011;31091;48.758;9.150;2022-11-20T15:44:34;2.03;;;1.50;;
45354;SDS011;31091;48.758;9.150;2022-11-20T15:47:00;3.47;;;1.80;;
45354;SDS011;31091;48.758;9.150;2022-11-20T15:49:25;4.13;;;1.73;;
45354;SDS011;31091;48.758;9.150;2022-11-20T15:51:50;2.47;;;1.48;;
45354;SDS011;31091;48.758;9.150;2022-11-20T15:54:21;3.70;;;1.67;;
45354;SDS011;31091;48.758;9.150;2022-11-20T15:56:47;4.97;;;2.28;;
45354;SDS011;31091;48.758;9.150;2022-11-20T15:59:16;2.92;;;1.38;;
45354;SDS011;31091;48.758;9.150;2022-11-20T16:01:41;3.70;;;1.60;;
45354;SDS011;31091;48.758;9.150;2022-11-20T16:04:13;2.33;;;1.50;;
45354;SDS011;31091;48.758;9.150;2022-11-20T16:06:39;4.03;;;1.60;;
45354;SDS011;31091;48.758;9.150;2022-11-20T16:09:04;5.75;;;2.25;;
45354;SDS011;31091;48.758;9.150;2022-11-20T16:11:29;10.02;;;3.85;;
45354;SDS011;31091;48.758;9.150;2022-11-20T16:13:58;6.72;;;2.92;;
45354;SDS011;31091;48.758;9.150;2022-11-20T16:16:42;3.25;;;1.92;;
45354;SDS011;31091;48.758;9.150;2022-11-20T16:19:14;5.28;;;1.95;;
45354;SDS011;31091;48.758;9.150;2022-11-20T16:21:40;3.60;;;1.90;;
45354;SDS011;31091;48.758;9.150;2022-11-20T16:24:07;7.82;;;3.78;;
45354;SDS011;31091;48.758;9.150;2022-11-20T16:26:33;4.45;;;1.88;;
45354;SDS011;31091;48.758;9.150;2022-11-20T16:28:59;5.68;;;1.90;;
45354;SDS011;31091;48.758;9.150;2022-11-20T16:31:24;3.10;;;1.75;;
45354;SDS011;31091;48.758;9.150;2022-11-20T16:33:53;5.00;;;1.60;;
45354;SDS011;31091;48.758;9.150;2022-11-20T16:36:26;2.22;;;1.50;;
45354;SDS011;31091;48.758;9.150;2022-11-20T16:39:12;2.95;;;1.27;;
45354;SDS011;31091;48.758;9.150;2022-11-20T16:41:57;2.33;;;1.75;;
45354;SDS011;31091;48.758;9.150;2022-11-20T16:44:45;5.13;;;1.80;;
45354;SDS011;31091;48.758;9.150;2022-11-20T16:47:34;3.90;;;1.75;;
45354;SDS011;31091;48.758;9.150;2022-11-20T16:50:19;3.13;;;1.55;;
45354;SDS011;31091;48.758;9.150;2022-11-20T16:53:04;4.68;;;2.35;;
45354;SDS011;31091;48.758;9.150;2022-11-20T16:55:50;2.72;;;1.73;;
45354;SDS011;31091;48.758;9.150;2022-11-20T16:58:35;3.88;;;1.60;;
45354;SDS011;31091;48.758;9.150;2022-11-20T17:01:21;4.63;;;2.70;;
45354;SDS011;31091;48.758;9.150;2022-11-20T17:04:06;4.50;;;1.88;;
45354;SDS011;31091;48.758;9.150;2022-11-20T17:06:52;6.15;;;2.30;;
45354;SDS011;31091;48.758;9.150;2022-11-20T17:09:17;5.13;;;1.95;;
45354;SDS011;31091;48.758;9.150;2022-11-20T17:11:42;3.72;;;2.03;;
45354;SDS011;31091;48.758;9.150;2022-11-20T17:14:09;4.53;;;1.90;;
45354;SDS011;31091;48.758;9.150;2022-11-20T17:16:35;4.45;;;2.45;;
45354;SDS011;31091;48.758;9.150;2022-11-20T17:19:00;4.43;;;2.35;;
45354;SDS011;31091;48.758;9.150;2022-11-20T17:21:25;4.97;;;2.15;;
45354;SDS011;31091;48.758;9.150;2022-11-20T17:23:51;4.45;;;2.53;;
45354;SDS011;31091;48.758;9.150;2022-11-20T17:26:17;5.68;;;2.58;;
45354;SDS011;31091;48.758;9.150;2022-11-20T17:28:43;8.55;;;2.05;;
45354;SDS011;31091;48.758;9.150;2022-11-20T17:31:10;3.95;;;1.90;;
45354;SDS011;31091;48.758;9.150;2022-11-20T17:33:54;3.47;;;1.90;;
45354;SDS011;31091;48.758;9.150;2022-11-20T17:36:20;3.25;;;1.90;;
45354;SDS011;31091;48.758;9.150;2022-11-20T17:38:45;6.35;;;2.40;;
45354;SDS011;31091;48.758;9.150;2022-11-20T17:41:15;4.65;;;2.25;;
45354;SDS011;31091;48.758;9.150;2022-11-20T17:46:07;2.50;;;1.50;;
45354;SDS011;31091;48.758;9.150;2022-11-20T17:48:33;4.28;;;1.67;;
45354;SDS011;31091;48.758;9.150;2022-11-20T17:51:02;7.88;;;2.55;;
45354;SDS011;31091;48.758;9.150;2022-11-20T17:53:28;4.03;;;2.10;;
45354;SDS011;31091;48.758;9.150;2022-11-20T17:55:56;3.83;;;2.00;;
45354;SDS011;31091;48.758;9.150;2022-11-20T17:58:40;3.60;;;1.90;;
45354;SDS011;31091;48.758;9.150;2022-11-20T18:01:06;3.63;;;1.95;;
45354;SDS011;31091;48.758;9.150;2022-11-20T18:03:32;2.05;;;1.60;;